Sunday, December 17, 2017, 4:10 PM EST
Back to Local

KCQX, Chatham Municipal Airport

Location: Chatham, MA, United States Lat: 41.683
Local Time: 4:10 PM EST (21:10 GMT) Lon: -70
Time Zone: US/Eastern Elev: 68 ft

Show me the last for .
Show Decoded

2017-12-17 15:52 METAR KCQX 172052Z AUTO 00000KT 10SM CLR M02/M12 A3025 RMK AO2 SLP244 T10221122
                 53005 =
2017-12-17 14:52 METAR KCQX 171952Z AUTO 30004KT 10SM CLR M02/M12 A3022 RMK AO2 SLP234 T10171122
                 =
2017-12-17 13:52 METAR KCQX 171852Z AUTO 31007KT 10SM CLR M02/M12 A3023 RMK AO2 SLP238 T10171117
                 =
2017-12-17 12:52 METAR KCQX 171752Z AUTO VRB06KT 10SM CLR M01/M11 A3023 RMK AO2 SLP239 T10061106
                 11006 21072 56010 =
2017-12-17 11:52 METAR KCQX 171652Z AUTO 33007G17KT 290V010 10SM CLR M01/M10 A3024 RMK AO2 SLP241
                 T10111100 =
2017-12-17 10:52 METAR KCQX 171552Z AUTO VRB06KT 10SM CLR M01/M09 A3024 RMK AO2 SLP243 T10061094
                 =
2017-12-17 09:52 METAR KCQX 171452Z AUTO VRB06KT 10SM CLR M02/M09 A3026 RMK AO2 SLP249 T10171089
                 51004 =
2017-12-17 08:52 METAR KCQX 171352Z AUTO 10SM CLR M02/M09 A3026 RMK AO2 SLP248 T10221094 =
2017-12-17 07:52 METAR KCQX 171252Z AUTO VRB03KT 10SM CLR M06/M11 A3025 RMK AO2 SLP246 T10561106
                 =
2017-12-17 06:52 METAR KCQX 171152Z AUTO 00000KT 10SM CLR M07/M11 A3025 RMK AO2 SLP244 T10671111
                 11017 21067 51018 =
2017-12-17 05:52 METAR KCQX 171052Z AUTO 25003KT 10SM CLR M07/M11 A3025 RMK AO2 SLP244 T10671111
                 =
2017-12-17 04:52 METAR KCQX 170952Z AUTO 28004KT 10SM CLR M04/M12 A3022 RMK AO2 SLP235 T10441117
                 =
2017-12-17 03:52 METAR KCQX 170852Z AUTO VRB04KT 10SM CLR M04/M11 A3019 RMK AO2 SLP226 T10391111
                 51014 =
2017-12-17 02:52 METAR KCQX 170752Z AUTO VRB03KT 10SM CLR M03/M11 A3019 RMK AO2 SLP226 T10281111
                 =
2017-12-17 01:52 METAR KCQX 170652Z AUTO 31005KT 10SM CLR M02/M11 A3017 RMK AO2 SLP218 T10221106
                 =
2017-12-17 00:52 METAR KCQX 170552Z AUTO 29005KT 10SM OVC047 M02/M09 A3015 RMK AO2 SLP212
                 T10171094 10000 21017 51013 =
2017-12-16 23:52 METAR KCQX 170452Z AUTO 30005KT 10SM FEW055 M02/M10 A3014 RMK AO2 SLP209
                 T10171100 400111067 =
2017-12-16 22:52 METAR KCQX 170352Z AUTO 30008G15KT 10SM BKN049 M01/M10 A3013 RMK AO2 SLP206
                 T10111100 =
2017-12-16 21:52 METAR KCQX 170252Z AUTO 30010G15KT 10SM FEW043 M01/M09 A3011 RMK AO2 SLP199
                 T10111089 53022 =
2017-12-16 20:52 METAR KCQX 170152Z AUTO 31009G17KT 280V350 10SM FEW040 BKN050 M01/M08 A3009 RMK
                 AO2 SLP191 T10061078 =
2017-12-16 19:52 METAR KCQX 170052Z AUTO 29007KT 250V330 10SM CLR M01/M07 A3007 RMK AO2 SLP183
                 T10111072 =
2017-12-16 18:52 METAR KCQX 162352Z AUTO 29006KT 10SM CLR 00/M07 A3005 RMK AO2 SLP176 T00001072
                 10011 21011 53033 =
2017-12-16 17:52 METAR KCQX 162252Z AUTO 28007G14KT 10SM CLR 00/M07 A3001 RMK AO2 SLP163
                 T00001072 =
2017-12-16 16:52 METAR KCQX 162152Z AUTO 28006KT 10SM OVC110 M01/M08 A2997 RMK AO2 SLP150
                 T10061078 =

Support USWX by starting your Amazon purchase here.